sensor_id;sensor_type;location;lat;lon;timestamp;P1;durP1;ratioP1;P2;durP2;ratioP2
15246;SDS011;7726;48.820;9.248;2023-11-21T00:00:48;7.93;;;3.23;;
15246;SDS011;7726;48.820;9.248;2023-11-21T00:03:16;4.27;;;2.67;;
15246;SDS011;7726;48.820;9.248;2023-11-21T00:05:44;3.88;;;2.63;;
15246;SDS011;7726;48.820;9.248;2023-11-21T00:08:11;4.40;;;2.75;;
15246;SDS011;7726;48.820;9.248;2023-11-21T00:10:38;6.57;;;2.50;;
15246;SDS011;7726;48.820;9.248;2023-11-21T00:13:05;6.43;;;2.50;;
15246;SDS011;7726;48.820;9.248;2023-11-21T00:15:33;4.70;;;2.33;;
15246;SDS011;7726;48.820;9.248;2023-11-21T00:18:01;9.13;;;2.90;;
15246;SDS011;7726;48.820;9.248;2023-11-21T00:20:28;4.73;;;2.67;;
15246;SDS011;7726;48.820;9.248;2023-11-21T00:22:55;5.83;;;2.50;;
15246;SDS011;7726;48.820;9.248;2023-11-21T00:25:22;5.80;;;2.43;;
15246;SDS011;7726;48.820;9.248;2023-11-21T00:27:50;5.30;;;2.30;;
15246;SDS011;7726;48.820;9.248;2023-11-21T00:30:17;7.40;;;3.07;;
15246;SDS011;7726;48.820;9.248;2023-11-21T00:32:45;7.23;;;2.47;;
15246;SDS011;7726;48.820;9.248;2023-11-21T00:35:13;5.10;;;2.13;;
15246;SDS011;7726;48.820;9.248;2023-11-21T00:37:41;6.30;;;2.15;;
15246;SDS011;7726;48.820;9.248;2023-11-21T00:40:08;6.60;;;2.30;;
15246;SDS011;7726;48.820;9.248;2023-11-21T00:42:36;4.07;;;2.17;;
15246;SDS011;7726;48.820;9.248;2023-11-21T00:45:03;5.70;;;2.57;;
15246;SDS011;7726;48.820;9.248;2023-11-21T00:47:31;6.00;;;2.70;;
15246;SDS011;7726;48.820;9.248;2023-11-21T00:49:58;4.63;;;2.33;;
15246;SDS011;7726;48.820;9.248;2023-11-21T00:52:27;7.78;;;3.08;;
15246;SDS011;7726;48.820;9.248;2023-11-21T00:54:54;7.17;;;2.40;;
15246;SDS011;7726;48.820;9.248;2023-11-21T00:57:21;3.95;;;2.30;;
15246;SDS011;7726;48.820;9.248;2023-11-21T00:59:48;6.45;;;2.58;;
15246;SDS011;7726;48.820;9.248;2023-11-21T01:02:15;6.30;;;2.57;;
15246;SDS011;7726;48.820;9.248;2023-11-21T01:04:42;8.97;;;2.60;;
15246;SDS011;7726;48.820;9.248;2023-11-21T01:07:09;11.07;;;3.00;;
15246;SDS011;7726;48.820;9.248;2023-11-21T01:09:38;10.07;;;3.23;;
15246;SDS011;7726;48.820;9.248;2023-11-21T01:12:05;7.57;;;2.90;;
15246;SDS011;7726;48.820;9.248;2023-11-21T01:14:32;6.55;;;2.40;;
15246;SDS011;7726;48.820;9.248;2023-11-21T01:17:01;8.15;;;3.28;;
15246;SDS011;7726;48.820;9.248;2023-11-21T01:19:29;5.07;;;2.93;;
15246;SDS011;7726;48.820;9.248;2023-11-21T01:21:56;9.43;;;2.78;;
15246;SDS011;7726;48.820;9.248;2023-11-21T01:24:24;4.93;;;2.33;;
15246;SDS011;7726;48.820;9.248;2023-11-21T01:26:52;8.63;;;2.37;;
15246;SDS011;7726;48.820;9.248;2023-11-21T01:29:19;6.80;;;2.10;;
15246;SDS011;7726;48.820;9.248;2023-11-21T01:31:46;6.23;;;2.17;;
15246;SDS011;7726;48.820;9.248;2023-11-21T01:34:13;5.67;;;2.07;;
15246;SDS011;7726;48.820;9.248;2023-11-21T01:36:41;3.47;;;1.40;;
15246;SDS011;7726;48.820;9.248;2023-11-21T01:39:08;1.92;;;1.20;;
15246;SDS011;7726;48.820;9.248;2023-11-21T01:41:40;2.83;;;1.55;;
15246;SDS011;7726;48.820;9.248;2023-11-21T01:44:10;5.10;;;1.53;;
15246;SDS011;7726;48.820;9.248;2023-11-21T01:46:38;3.33;;;1.38;;
15246;SDS011;7726;48.820;9.248;2023-11-21T01:49:06;8.50;;;1.80;;
15246;SDS011;7726;48.820;9.248;2023-11-21T01:51:34;3.40;;;1.30;;
15246;SDS011;7726;48.820;9.248;2023-11-21T01:54:03;1.73;;;1.17;;
15246;SDS011;7726;48.820;9.248;2023-11-21T01:56:31;3.72;;;1.35;;
15246;SDS011;7726;48.820;9.248;2023-11-21T01:58:59;2.13;;;1.27;;
15246;SDS011;7726;48.820;9.248;2023-11-21T02:01:27;2.90;;;1.27;;
15246;SDS011;7726;48.820;9.248;2023-11-21T02:03:54;5.78;;;1.17;;
15246;SDS011;7726;48.820;9.248;2023-11-21T02:06:21;1.50;;;1.15;;
15246;SDS011;7726;48.820;9.248;2023-11-21T02:08:49;2.25;;;1.20;;
15246;SDS011;7726;48.820;9.248;2023-11-21T02:11:16;3.83;;;1.40;;
15246;SDS011;7726;48.820;9.248;2023-11-21T02:13:44;2.10;;;1.23;;
15246;SDS011;7726;48.820;9.248;2023-11-21T02:16:12;3.28;;;1.00;;
15246;SDS011;7726;48.820;9.248;2023-11-21T02:18:41;3.35;;;1.40;;
15246;SDS011;7726;48.820;9.248;2023-11-21T02:21:08;2.40;;;1.10;;
15246;SDS011;7726;48.820;9.248;2023-11-21T02:23:37;3.37;;;1.40;;
15246;SDS011;7726;48.820;9.248;2023-11-21T02:26:07;4.53;;;1.17;;
15246;SDS011;7726;48.820;9.248;2023-11-21T02:28:34;2.60;;;1.37;;
15246;SDS011;7726;48.820;9.248;2023-11-21T02:31:03;2.70;;;1.10;;
15246;SDS011;7726;48.820;9.248;2023-11-21T02:33:32;4.07;;;1.10;;
15246;SDS011;7726;48.820;9.248;2023-11-21T02:35:59;3.00;;;0.90;;
15246;SDS011;7726;48.820;9.248;2023-11-21T02:38:27;1.10;;;0.90;;
15246;SDS011;7726;48.820;9.248;2023-11-21T02:40:57;1.03;;;0.73;;
15246;SDS011;7726;48.820;9.248;2023-11-21T02:43:25;2.60;;;1.27;;
15246;SDS011;7726;48.820;9.248;2023-11-21T02:45:52;1.98;;;0.95;;
15246;SDS011;7726;48.820;9.248;2023-11-21T02:48:19;2.35;;;1.02;;
15246;SDS011;7726;48.820;9.248;2023-11-21T02:50:49;2.83;;;1.20;;
15246;SDS011;7726;48.820;9.248;2023-11-21T02:53:16;0.77;;;0.70;;
15246;SDS011;7726;48.820;9.248;2023-11-21T02:55:43;1.60;;;1.02;;
15246;SDS011;7726;48.820;9.248;2023-11-21T02:58:12;1.15;;;1.02;;
15246;SDS011;7726;48.820;9.248;2023-11-21T03:00:39;2.70;;;1.08;;
15246;SDS011;7726;48.820;9.248;2023-11-21T03:03:06;1.17;;;0.90;;
15246;SDS011;7726;48.820;9.248;2023-11-21T03:05:34;3.05;;;1.00;;
15246;SDS011;7726;48.820;9.248;2023-11-21T03:08:02;0.90;;;0.80;;
15246;SDS011;7726;48.820;9.248;2023-11-21T03:10:30;3.38;;;1.30;;
15246;SDS011;7726;48.820;9.248;2023-11-21T03:12:58;1.70;;;0.60;;
15246;SDS011;7726;48.820;9.248;2023-11-21T03:15:26;1.27;;;0.95;;
15246;SDS011;7726;48.820;9.248;2023-11-21T03:17:53;1.77;;;0.90;;
15246;SDS011;7726;48.820;9.248;2023-11-21T03:20:20;6.10;;;0.87;;
15246;SDS011;7726;48.820;9.248;2023-11-21T03:22:48;0.77;;;0.77;;
15246;SDS011;7726;48.820;9.248;2023-11-21T03:25:15;3.10;;;0.90;;
15246;SDS011;7726;48.820;9.248;2023-11-21T03:27:43;1.70;;;0.80;;
15246;SDS011;7726;48.820;9.248;2023-11-21T03:30:10;1.07;;;0.70;;
15246;SDS011;7726;48.820;9.248;2023-11-21T03:32:39;1.33;;;0.80;;
15246;SDS011;7726;48.820;9.248;2023-11-21T03:35:07;2.33;;;0.90;;
15246;SDS011;7726;48.820;9.248;2023-11-21T03:37:34;1.17;;;0.80;;
15246;SDS011;7726;48.820;9.248;2023-11-21T03:40:03;1.13;;;0.93;;
15246;SDS011;7726;48.820;9.248;2023-11-21T03:42:33;2.33;;;1.10;;
15246;SDS011;7726;48.820;9.248;2023-11-21T03:45:00;1.93;;;0.83;;
15246;SDS011;7726;48.820;9.248;2023-11-21T03:47:29;2.65;;;0.90;;
15246;SDS011;7726;48.820;9.248;2023-11-21T03:49:57;2.83;;;1.17;;
15246;SDS011;7726;48.820;9.248;2023-11-21T03:52:24;1.52;;;1.00;;
15246;SDS011;7726;48.820;9.248;2023-11-21T03:54:52;3.47;;;1.05;;
15246;SDS011;7726;48.820;9.248;2023-11-21T03:57:20;1.40;;;1.05;;
15246;SDS011;7726;48.820;9.248;2023-11-21T03:59:47;1.90;;;0.90;;
15246;SDS011;7726;48.820;9.248;2023-11-21T04:02:14;1.30;;;1.00;;
15246;SDS011;7726;48.820;9.248;2023-11-21T04:04:42;1.20;;;1.07;;
15246;SDS011;7726;48.820;9.248;2023-11-21T04:07:11;0.93;;;0.80;;
15246;SDS011;7726;48.820;9.248;2023-11-21T04:09:38;1.10;;;0.70;;
15246;SDS011;7726;48.820;9.248;2023-11-21T04:12:06;1.73;;;0.98;;
15246;SDS011;7726;48.820;9.248;2023-11-21T04:14:35;1.50;;;0.82;;
15246;SDS011;7726;48.820;9.248;2023-11-21T04:17:02;1.70;;;0.95;;
15246;SDS011;7726;48.820;9.248;2023-11-21T04:19:29;0.90;;;0.90;;
15246;SDS011;7726;48.820;9.248;2023-11-21T04:21:57;3.15;;;0.90;;
15246;SDS011;7726;48.820;9.248;2023-11-21T04:24:25;1.52;;;1.00;;
15246;SDS011;7726;48.820;9.248;2023-11-21T04:26:52;3.33;;;0.90;;
15246;SDS011;7726;48.820;9.248;2023-11-21T04:29:20;3.42;;;1.00;;
15246;SDS011;7726;48.820;9.248;2023-11-21T04:31:47;2.05;;;0.88;;
15246;SDS011;7726;48.820;9.248;2023-11-21T04:34:15;1.15;;;1.05;;
15246;SDS011;7726;48.820;9.248;2023-11-21T04:36:42;2.10;;;1.10;;
15246;SDS011;7726;48.820;9.248;2023-11-21T04:39:10;1.20;;;1.10;;
15246;SDS011;7726;48.820;9.248;2023-11-21T04:41:38;1.83;;;0.80;;
15246;SDS011;7726;48.820;9.248;2023-11-21T04:44:06;2.55;;;1.00;;
15246;SDS011;7726;48.820;9.248;2023-11-21T04:46:33;2.00;;;0.70;;
15246;SDS011;7726;48.820;9.248;2023-11-21T04:49:00;1.88;;;1.13;;
15246;SDS011;7726;48.820;9.248;2023-11-21T04:51:27;1.45;;;0.80;;
15246;SDS011;7726;48.820;9.248;2023-11-21T04:53:55;3.50;;;1.03;;
15246;SDS011;7726;48.820;9.248;2023-11-21T04:56:22;1.60;;;0.70;;
15246;SDS011;7726;48.820;9.248;2023-11-21T04:58:51;1.23;;;0.80;;
15246;SDS011;7726;48.820;9.248;2023-11-21T05:01:18;2.13;;;1.07;;
15246;SDS011;7726;48.820;9.248;2023-11-21T05:03:46;2.50;;;1.00;;
15246;SDS011;7726;48.820;9.248;2023-11-21T05:06:14;2.17;;;0.90;;
15246;SDS011;7726;48.820;9.248;2023-11-21T05:08:41;2.23;;;1.47;;
15246;SDS011;7726;48.820;9.248;2023-11-21T05:11:08;6.13;;;3.40;;
15246;SDS011;7726;48.820;9.248;2023-11-21T05:13:35;4.57;;;4.00;;
15246;SDS011;7726;48.820;9.248;2023-11-21T05:16:05;4.53;;;3.80;;
15246;SDS011;7726;48.820;9.248;2023-11-21T05:18:33;4.00;;;3.33;;
15246;SDS011;7726;48.820;9.248;2023-11-21T05:21:00;2.50;;;2.30;;
15246;SDS011;7726;48.820;9.248;2023-11-21T05:23:27;2.57;;;2.37;;
15246;SDS011;7726;48.820;9.248;2023-11-21T05:25:54;4.77;;;2.10;;
15246;SDS011;7726;48.820;9.248;2023-11-21T05:28:22;1.67;;;1.57;;
15246;SDS011;7726;48.820;9.248;2023-11-21T05:30:49;1.97;;;1.40;;
15246;SDS011;7726;48.820;9.248;2023-11-21T05:33:17;1.50;;;1.27;;
15246;SDS011;7726;48.820;9.248;2023-11-21T05:35:44;3.07;;;1.30;;
15246;SDS011;7726;48.820;9.248;2023-11-21T05:38:13;1.20;;;0.80;;
15246;SDS011;7726;48.820;9.248;2023-11-21T05:40:40;1.05;;;0.77;;
15246;SDS011;7726;48.820;9.248;2023-11-21T05:43:08;2.10;;;1.03;;
15246;SDS011;7726;48.820;9.248;2023-11-21T05:45:36;2.45;;;0.90;;
15246;SDS011;7726;48.820;9.248;2023-11-21T05:48:04;1.20;;;1.10;;
15246;SDS011;7726;48.820;9.248;2023-11-21T05:50:32;1.17;;;0.90;;
15246;SDS011;7726;48.820;9.248;2023-11-21T05:52:59;2.30;;;1.07;;
15246;SDS011;7726;48.820;9.248;2023-11-21T05:55:27;3.73;;;1.10;;
15246;SDS011;7726;48.820;9.248;2023-11-21T05:57:54;2.53;;;1.30;;
15246;SDS011;7726;48.820;9.248;2023-11-21T06:00:22;0.85;;;0.85;;
15246;SDS011;7726;48.820;9.248;2023-11-21T06:02:50;3.17;;;1.20;;
15246;SDS011;7726;48.820;9.248;2023-11-21T06:05:18;3.70;;;1.10;;
15246;SDS011;7726;48.820;9.248;2023-11-21T06:07:49;4.87;;;1.23;;
15246;SDS011;7726;48.820;9.248;2023-11-21T06:10:17;2.70;;;1.15;;
15246;SDS011;7726;48.820;9.248;2023-11-21T06:12:44;1.37;;;1.00;;
15246;SDS011;7726;48.820;9.248;2023-11-21T06:15:11;2.58;;;1.33;;
15246;SDS011;7726;48.820;9.248;2023-11-21T06:17:39;2.53;;;1.73;;
15246;SDS011;7726;48.820;9.248;2023-11-21T06:20:07;2.63;;;1.10;;
15246;SDS011;7726;48.820;9.248;2023-11-21T06:22:35;2.30;;;1.20;;
15246;SDS011;7726;48.820;9.248;2023-11-21T06:25:04;5.37;;;1.33;;
15246;SDS011;7726;48.820;9.248;2023-11-21T06:27:33;3.10;;;1.80;;
15246;SDS011;7726;48.820;9.248;2023-11-21T06:30:01;3.10;;;2.37;;
15246;SDS011;7726;48.820;9.248;2023-11-21T06:32:28;2.27;;;1.77;;
15246;SDS011;7726;48.820;9.248;2023-11-21T06:34:55;4.00;;;1.63;;
15246;SDS011;7726;48.820;9.248;2023-11-21T06:37:24;2.40;;;2.20;;
15246;SDS011;7726;48.820;9.248;2023-11-21T06:39:51;2.40;;;2.20;;
15246;SDS011;7726;48.820;9.248;2023-11-21T06:42:20;4.18;;;2.17;;
15246;SDS011;7726;48.820;9.248;2023-11-21T06:44:47;2.97;;;1.98;;
15246;SDS011;7726;48.820;9.248;2023-11-21T06:47:16;1.70;;;1.60;;
15246;SDS011;7726;48.820;9.248;2023-11-21T06:49:45;1.70;;;1.60;;
15246;SDS011;7726;48.820;9.248;2023-11-21T06:52:14;3.63;;;1.67;;
15246;SDS011;7726;48.820;9.248;2023-11-21T06:54:41;2.93;;;1.80;;
15246;SDS011;7726;48.820;9.248;2023-11-21T06:57:08;8.57;;;1.80;;
15246;SDS011;7726;48.820;9.248;2023-11-21T06:59:36;2.27;;;1.50;;
15246;SDS011;7726;48.820;9.248;2023-11-21T07:02:04;3.77;;;1.40;;
15246;SDS011;7726;48.820;9.248;2023-11-21T07:04:31;2.70;;;1.20;;
15246;SDS011;7726;48.820;9.248;2023-11-21T07:06:58;1.50;;;1.40;;
15246;SDS011;7726;48.820;9.248;2023-11-21T07:09:26;3.53;;;1.40;;
15246;SDS011;7726;48.820;9.248;2023-11-21T07:11:53;2.20;;;1.30;;
15246;SDS011;7726;48.820;9.248;2023-11-21T07:14:20;2.40;;;1.40;;
15246;SDS011;7726;48.820;9.248;2023-11-21T07:16:48;3.87;;;1.50;;
15246;SDS011;7726;48.820;9.248;2023-11-21T07:19:17;2.20;;;1.40;;
15246;SDS011;7726;48.820;9.248;2023-11-21T07:21:44;2.47;;;1.37;;
15246;SDS011;7726;48.820;9.248;2023-11-21T07:24:12;6.47;;;1.70;;
15246;SDS011;7726;48.820;9.248;2023-11-21T07:26:39;2.28;;;1.48;;
15246;SDS011;7726;48.820;9.248;2023-11-21T07:29:06;1.60;;;1.20;;
15246;SDS011;7726;48.820;9.248;2023-11-21T07:31:33;1.95;;;1.75;;
15246;SDS011;7726;48.820;9.248;2023-11-21T07:34:02;2.40;;;1.60;;
15246;SDS011;7726;48.820;9.248;2023-11-21T07:36:29;2.10;;;1.40;;
15246;SDS011;7726;48.820;9.248;2023-11-21T07:38:56;1.33;;;1.23;;
15246;SDS011;7726;48.820;9.248;2023-11-21T07:41:23;2.42;;;1.27;;
15246;SDS011;7726;48.820;9.248;2023-11-21T07:43:51;1.87;;;1.10;;
15246;SDS011;7726;48.820;9.248;2023-11-21T07:46:18;3.10;;;1.80;;
15246;SDS011;7726;48.820;9.248;2023-11-21T07:48:46;2.57;;;1.40;;
15246;SDS011;7726;48.820;9.248;2023-11-21T07:51:14;2.97;;;1.70;;
15246;SDS011;7726;48.820;9.248;2023-11-21T07:53:41;4.43;;;1.60;;
15246;SDS011;7726;48.820;9.248;2023-11-21T07:56:09;2.50;;;1.60;;
15246;SDS011;7726;48.820;9.248;2023-11-21T07:58:36;2.33;;;1.17;;
15246;SDS011;7726;48.820;9.248;2023-11-21T08:01:04;3.03;;;1.43;;
15246;SDS011;7726;48.820;9.248;2023-11-21T08:03:31;2.93;;;1.17;;
15246;SDS011;7726;48.820;9.248;2023-11-21T08:05:59;2.97;;;1.30;;
15246;SDS011;7726;48.820;9.248;2023-11-21T08:08:29;1.40;;;1.30;;
15246;SDS011;7726;48.820;9.248;2023-11-21T08:10:57;3.17;;;1.13;;
15246;SDS011;7726;48.820;9.248;2023-11-21T08:13:27;2.40;;;1.30;;
15246;SDS011;7726;48.820;9.248;2023-11-21T08:15:54;1.80;;;1.23;;
15246;SDS011;7726;48.820;9.248;2023-11-21T08:18:21;2.73;;;1.70;;
15246;SDS011;7726;48.820;9.248;2023-11-21T08:20:49;1.50;;;1.20;;
15246;SDS011;7726;48.820;9.248;2023-11-21T08:23:17;2.25;;;1.23;;
15246;SDS011;7726;48.820;9.248;2023-11-21T08:25:46;2.15;;;1.20;;
15246;SDS011;7726;48.820;9.248;2023-11-21T08:28:13;2.72;;;1.40;;
15246;SDS011;7726;48.820;9.248;2023-11-21T08:30:41;3.25;;;1.50;;
15246;SDS011;7726;48.820;9.248;2023-11-21T08:33:09;1.50;;;1.27;;
15246;SDS011;7726;48.820;9.248;2023-11-21T08:35:37;3.05;;;1.27;;
15246;SDS011;7726;48.820;9.248;2023-11-21T08:38:04;1.30;;;1.20;;
15246;SDS011;7726;48.820;9.248;2023-11-21T08:40:31;3.95;;;1.35;;
15246;SDS011;7726;48.820;9.248;2023-11-21T08:43:00;3.25;;;1.48;;
15246;SDS011;7726;48.820;9.248;2023-11-21T08:45:29;2.70;;;1.27;;
15246;SDS011;7726;48.820;9.248;2023-11-21T08:47:58;2.10;;;1.20;;
15246;SDS011;7726;48.820;9.248;2023-11-21T08:50:25;3.67;;;1.40;;
15246;SDS011;7726;48.820;9.248;2023-11-21T08:52:52;4.22;;;1.30;;
15246;SDS011;7726;48.820;9.248;2023-11-21T08:55:19;1.90;;;1.20;;
15246;SDS011;7726;48.820;9.248;2023-11-21T08:57:47;2.10;;;1.20;;
15246;SDS011;7726;48.820;9.248;2023-11-21T09:00:16;2.10;;;1.70;;
15246;SDS011;7726;48.820;9.248;2023-11-21T09:02:43;2.67;;;1.55;;
15246;SDS011;7726;48.820;9.248;2023-11-21T09:05:11;3.35;;;1.48;;
15246;SDS011;7726;48.820;9.248;2023-11-21T09:07:39;2.75;;;1.50;;
15246;SDS011;7726;48.820;9.248;2023-11-21T09:10:07;1.70;;;1.13;;
15246;SDS011;7726;48.820;9.248;2023-11-21T09:12:34;1.27;;;1.05;;
15246;SDS011;7726;48.820;9.248;2023-11-21T09:15:02;1.17;;;1.05;;
15246;SDS011;7726;48.820;9.248;2023-11-21T09:17:31;2.42;;;1.30;;
15246;SDS011;7726;48.820;9.248;2023-11-21T09:19:59;1.33;;;1.27;;
15246;SDS011;7726;48.820;9.248;2023-11-21T09:22:26;1.30;;;1.20;;
15246;SDS011;7726;48.820;9.248;2023-11-21T09:24:54;3.60;;;1.60;;
15246;SDS011;7726;48.820;9.248;2023-11-21T09:27:22;1.33;;;1.23;;
15246;SDS011;7726;48.820;9.248;2023-11-21T09:29:50;5.38;;;1.63;;
15246;SDS011;7726;48.820;9.248;2023-11-21T09:32:18;1.42;;;1.30;;
15246;SDS011;7726;48.820;9.248;2023-11-21T09:34:47;2.00;;;1.10;;
15246;SDS011;7726;48.820;9.248;2023-11-21T09:37:15;1.10;;;1.00;;
15246;SDS011;7726;48.820;9.248;2023-11-21T09:39:42;3.35;;;1.35;;
15246;SDS011;7726;48.820;9.248;2023-11-21T09:42:10;3.35;;;1.40;;
15246;SDS011;7726;48.820;9.248;2023-11-21T09:44:42;1.10;;;1.10;;
15246;SDS011;7726;48.820;9.248;2023-11-21T09:47:10;1.42;;;1.33;;
15246;SDS011;7726;48.820;9.248;2023-11-21T09:49:41;2.30;;;1.20;;
15246;SDS011;7726;48.820;9.248;2023-11-21T09:52:13;1.50;;;1.00;;
15246;SDS011;7726;48.820;9.248;2023-11-21T09:54:43;1.20;;;1.05;;
15246;SDS011;7726;48.820;9.248;2023-11-21T09:57:10;1.50;;;1.10;;
15246;SDS011;7726;48.820;9.248;2023-11-21T09:59:39;1.25;;;1.13;;
15246;SDS011;7726;48.820;9.248;2023-11-21T10:02:07;1.48;;;0.98;;
15246;SDS011;7726;48.820;9.248;2023-11-21T10:04:37;1.30;;;1.20;;
15246;SDS011;7726;48.820;9.248;2023-11-21T10:07:05;1.40;;;1.30;;
15246;SDS011;7726;48.820;9.248;2023-11-21T10:09:35;1.95;;;1.40;;
15246;SDS011;7726;48.820;9.248;2023-11-21T10:12:04;2.67;;;1.20;;
15246;SDS011;7726;48.820;9.248;2023-11-21T10:14:33;1.65;;;1.20;;
15246;SDS011;7726;48.820;9.248;2023-11-21T10:17:01;1.65;;;1.50;;
15246;SDS011;7726;48.820;9.248;2023-11-21T10:19:28;1.38;;;1.20;;
15246;SDS011;7726;48.820;9.248;2023-11-21T10:21:56;1.70;;;1.52;;
15246;SDS011;7726;48.820;9.248;2023-11-21T10:24:25;2.05;;;1.30;;
15246;SDS011;7726;48.820;9.248;2023-11-21T10:26:53;2.22;;;1.65;;
15246;SDS011;7726;48.820;9.248;2023-11-21T10:29:20;1.98;;;1.60;;
15246;SDS011;7726;48.820;9.248;2023-11-21T10:31:48;2.70;;;1.45;;
15246;SDS011;7726;48.820;9.248;2023-11-21T10:34:16;1.60;;;1.50;;
15246;SDS011;7726;48.820;9.248;2023-11-21T10:36:44;3.13;;;1.63;;
15246;SDS011;7726;48.820;9.248;2023-11-21T10:39:13;1.77;;;1.40;;
15246;SDS011;7726;48.820;9.248;2023-11-21T10:41:44;3.95;;;2.08;;
15246;SDS011;7726;48.820;9.248;2023-11-21T10:44:14;1.77;;;1.67;;
15246;SDS011;7726;48.820;9.248;2023-11-21T10:46:45;1.70;;;1.60;;
15246;SDS011;7726;48.820;9.248;2023-11-21T10:49:16;1.73;;;1.20;;
15246;SDS011;7726;48.820;9.248;2023-11-21T10:51:43;2.08;;;1.00;;
15246;SDS011;7726;48.820;9.248;2023-11-21T10:54:11;2.17;;;1.10;;
15246;SDS011;7726;48.820;9.248;2023-11-21T10:56:38;1.27;;;0.60;;
15246;SDS011;7726;48.820;9.248;2023-11-21T10:59:08;0.90;;;0.90;;
15246;SDS011;7726;48.820;9.248;2023-11-21T11:01:41;0.87;;;0.70;;
15246;SDS011;7726;48.820;9.248;2023-11-21T11:04:09;0.85;;;0.73;;
15246;SDS011;7726;48.820;9.248;2023-11-21T11:06:40;1.25;;;0.93;;
15246;SDS011;7726;48.820;9.248;2023-11-21T11:09:07;0.82;;;0.82;;
15246;SDS011;7726;48.820;9.248;2023-11-21T11:11:38;2.10;;;0.75;;
15246;SDS011;7726;48.820;9.248;2023-11-21T11:14:06;0.75;;;0.75;;
15246;SDS011;7726;48.820;9.248;2023-11-21T11:16:33;0.70;;;0.70;;
15246;SDS011;7726;48.820;9.248;2023-11-21T11:19:02;2.17;;;0.70;;
15246;SDS011;7726;48.820;9.248;2023-11-21T11:21:31;0.77;;;0.77;;
15246;SDS011;7726;48.820;9.248;2023-11-21T11:24:13;3.03;;;1.00;;
15246;SDS011;7726;48.820;9.248;2023-11-21T11:26:46;1.38;;;0.70;;
15246;SDS011;7726;48.820;9.248;2023-11-21T11:29:15;0.98;;;0.82;;
15246;SDS011;7726;48.820;9.248;2023-11-21T11:31:48;0.85;;;0.85;;
15246;SDS011;7726;48.820;9.248;2023-11-21T11:34:23;1.42;;;1.13;;
15246;SDS011;7726;48.820;9.248;2023-11-21T11:36:53;1.02;;;0.93;;
15246;SDS011;7726;48.820;9.248;2023-11-21T11:39:28;0.80;;;0.80;;
15246;SDS011;7726;48.820;9.248;2023-11-21T11:41:56;1.13;;;1.10;;
15246;SDS011;7726;48.820;9.248;2023-11-21T11:47:13;1.10;;;1.00;;
15246;SDS011;7726;48.820;9.248;2023-11-21T11:52:33;1.27;;;1.00;;
15246;SDS011;7726;48.820;9.248;2023-11-21T11:55:00;1.17;;;1.10;;
15246;SDS011;7726;48.820;9.248;2023-11-21T11:57:29;1.20;;;1.10;;
15246;SDS011;7726;48.820;9.248;2023-11-21T12:00:10;2.55;;;1.25;;
15246;SDS011;7726;48.820;9.248;2023-11-21T12:02:41;1.42;;;1.30;;
15246;SDS011;7726;48.820;9.248;2023-11-21T12:05:08;1.15;;;1.15;;
15246;SDS011;7726;48.820;9.248;2023-11-21T12:07:43;1.20;;;1.20;;
15246;SDS011;7726;48.820;9.248;2023-11-21T12:10:11;1.27;;;1.13;;
15246;SDS011;7726;48.820;9.248;2023-11-21T12:12:42;1.33;;;1.23;;
15246;SDS011;7726;48.820;9.248;2023-11-21T12:15:10;1.10;;;1.10;;
15246;SDS011;7726;48.820;9.248;2023-11-21T12:17:37;1.20;;;1.20;;
15246;SDS011;7726;48.820;9.248;2023-11-21T12:20:05;1.50;;;0.98;;
15246;SDS011;7726;48.820;9.248;2023-11-21T12:22:39;1.33;;;0.85;;
15246;SDS011;7726;48.820;9.248;2023-11-21T12:25:08;0.90;;;0.90;;
15246;SDS011;7726;48.820;9.248;2023-11-21T12:27:35;1.02;;;1.02;;
15246;SDS011;7726;48.820;9.248;2023-11-21T12:30:02;0.70;;;0.70;;
15246;SDS011;7726;48.820;9.248;2023-11-21T12:32:29;1.08;;;0.88;;
15246;SDS011;7726;48.820;9.248;2023-11-21T12:34:57;1.10;;;1.10;;
15246;SDS011;7726;48.820;9.248;2023-11-21T12:37:25;0.80;;;0.80;;
15246;SDS011;7726;48.820;9.248;2023-11-21T12:39:53;0.85;;;0.85;;
15246;SDS011;7726;48.820;9.248;2023-11-21T12:42:24;0.90;;;0.90;;
15246;SDS011;7726;48.820;9.248;2023-11-21T12:45:07;0.95;;;0.95;;
15246;SDS011;7726;48.820;9.248;2023-11-21T12:47:39;2.17;;;0.93;;
15246;SDS011;7726;48.820;9.248;2023-11-21T12:50:06;0.93;;;0.82;;
15246;SDS011;7726;48.820;9.248;2023-11-21T12:52:39;0.90;;;0.90;;
15246;SDS011;7726;48.820;9.248;2023-11-21T12:55:06;1.38;;;1.27;;
15246;SDS011;7726;48.820;9.248;2023-11-21T12:57:36;1.20;;;1.20;;
15246;SDS011;7726;48.820;9.248;2023-11-21T13:00:03;2.00;;;1.20;;
15246;SDS011;7726;48.820;9.248;2023-11-21T13:02:49;1.60;;;1.50;;
15246;SDS011;7726;48.820;9.248;2023-11-21T13:05:22;1.58;;;1.48;;
15246;SDS011;7726;48.820;9.248;2023-11-21T13:07:50;2.00;;;1.35;;
15246;SDS011;7726;48.820;9.248;2023-11-21T13:10:19;1.70;;;1.60;;
15246;SDS011;7726;48.820;9.248;2023-11-21T13:12:52;1.80;;;1.38;;
15246;SDS011;7726;48.820;9.248;2023-11-21T13:15:20;1.58;;;1.48;;
15246;SDS011;7726;48.820;9.248;2023-11-21T13:17:47;2.83;;;1.58;;
15246;SDS011;7726;48.820;9.248;2023-11-21T13:20:16;1.90;;;1.80;;
15246;SDS011;7726;48.820;9.248;2023-11-21T13:22:46;2.10;;;2.00;;
15246;SDS011;7726;48.820;9.248;2023-11-21T13:25:14;1.73;;;1.63;;
15246;SDS011;7726;48.820;9.248;2023-11-21T13:27:42;2.63;;;1.90;;
15246;SDS011;7726;48.820;9.248;2023-11-21T13:30:12;2.03;;;1.90;;
15246;SDS011;7726;48.820;9.248;2023-11-21T13:32:42;2.30;;;1.52;;
15246;SDS011;7726;48.820;9.248;2023-11-21T13:35:09;1.48;;;1.38;;
15246;SDS011;7726;48.820;9.248;2023-11-21T13:37:48;1.25;;;1.25;;
15246;SDS011;7726;48.820;9.248;2023-11-21T13:40:20;1.42;;;1.33;;
15246;SDS011;7726;48.820;9.248;2023-11-21T13:42:50;1.45;;;1.40;;
15246;SDS011;7726;48.820;9.248;2023-11-21T13:45:21;1.60;;;1.40;;
15246;SDS011;7726;48.820;9.248;2023-11-21T13:47:49;2.55;;;1.80;;
15246;SDS011;7726;48.820;9.248;2023-11-21T13:50:22;2.80;;;1.80;;
15246;SDS011;7726;48.820;9.248;2023-11-21T13:52:54;1.97;;;1.87;;
15246;SDS011;7726;48.820;9.248;2023-11-21T13:55:21;1.58;;;1.48;;
15246;SDS011;7726;48.820;9.248;2023-11-21T13:57:50;1.73;;;1.63;;
15246;SDS011;7726;48.820;9.248;2023-11-21T14:00:17;1.77;;;1.67;;
15246;SDS011;7726;48.820;9.248;2023-11-21T14:03:04;1.83;;;1.73;;
15246;SDS011;7726;48.820;9.248;2023-11-21T14:05:36;1.80;;;1.70;;
15246;SDS011;7726;48.820;9.248;2023-11-21T14:08:04;1.80;;;1.70;;
15246;SDS011;7726;48.820;9.248;2023-11-21T14:10:31;1.60;;;1.50;;
15246;SDS011;7726;48.820;9.248;2023-11-21T14:13:05;1.70;;;1.60;;
15246;SDS011;7726;48.820;9.248;2023-11-21T14:15:32;1.53;;;1.40;;
15246;SDS011;7726;48.820;9.248;2023-11-21T14:18:04;3.87;;;2.00;;
15246;SDS011;7726;48.820;9.248;2023-11-21T14:20:35;1.60;;;1.50;;
15246;SDS011;7726;48.820;9.248;2023-11-21T14:23:02;1.90;;;1.80;;
15246;SDS011;7726;48.820;9.248;2023-11-21T14:25:31;3.40;;;1.67;;
15246;SDS011;7726;48.820;9.248;2023-11-21T14:27:58;2.23;;;1.67;;
15246;SDS011;7726;48.820;9.248;2023-11-21T14:30:25;2.03;;;1.70;;
15246;SDS011;7726;48.820;9.248;2023-11-21T14:32:55;2.08;;;1.85;;
15246;SDS011;7726;48.820;9.248;2023-11-21T14:35:23;1.67;;;1.57;;
15246;SDS011;7726;48.820;9.248;2023-11-21T14:37:51;1.97;;;1.00;;
15246;SDS011;7726;48.820;9.248;2023-11-21T14:40:19;2.88;;;1.10;;
15246;SDS011;7726;48.820;9.248;2023-11-21T14:42:49;1.00;;;1.00;;
15246;SDS011;7726;48.820;9.248;2023-11-21T14:45:18;1.10;;;1.00;;
15246;SDS011;7726;48.820;9.248;2023-11-21T14:47:45;1.10;;;1.00;;
15246;SDS011;7726;48.820;9.248;2023-11-21T14:50:20;1.20;;;1.10;;
15246;SDS011;7726;48.820;9.248;2023-11-21T14:53:18;0.63;;;0.63;;
15246;SDS011;7726;48.820;9.248;2023-11-21T14:56:06;1.33;;;0.90;;
15246;SDS011;7726;48.820;9.248;2023-11-21T14:58:33;1.00;;;1.00;;
15246;SDS011;7726;48.820;9.248;2023-11-21T15:01:02;1.23;;;1.10;;
15246;SDS011;7726;48.820;9.248;2023-11-21T15:03:29;1.20;;;1.10;;
15246;SDS011;7726;48.820;9.248;2023-11-21T15:06:15;1.13;;;0.93;;
15246;SDS011;7726;48.820;9.248;2023-11-21T15:08:49;1.27;;;1.10;;
15246;SDS011;7726;48.820;9.248;2023-11-21T15:11:33;0.90;;;0.90;;
15246;SDS011;7726;48.820;9.248;2023-11-21T15:13:59;3.83;;;1.20;;